Time;durP1;ratioP1;P1;durP2;ratioP2;P2;SDS_P1;SDS_P2;PMS_P1;PMS_P2;Temp;Humidity;BMP_temperature;BMP_pressure;BME280_temperature;BME280_humidity;BME280_pressure;Samples;Min_cycle;Max_cycle;Signal;HPM_P1;HPM_P2
2023/01/22 00:01:32;;;;;;;;;;;;;;;10.93;46.84;101527.38;4839629;28;121193;-67
2023/01/22 00:03:58;;;;;;;;;;;;;;;10.92;46.56;101529.25;4814464;28;99733;-66
2023/01/22 00:06:24;;;;;;;;;;;;;;;10.92;46.92;101526.53;4824087;28;122443;-67
2023/01/22 00:08:50;;;;;;;;;;;;;;;10.93;46.92;101519.31;4804851;28;128022;-65
2023/01/22 00:11:16;;;;;;;;;;;;;;;10.93;46.82;101516.59;4829026;28;116870;-66
2023/01/22 00:13:42;;;;;;;;;;;;;;;10.93;47.02;101522.00;4827056;28;113152;-65
2023/01/22 00:16:11;;;;;;;;;;;;;;;10.93;46.97;101528.22;4825342;28;98015;-66
2023/01/22 00:18:37;;;;;;;;;;;;;;;10.94;47.05;101520.94;4823659;28;108857;-66
2023/01/22 00:21:03;;;;;;;;;;;;;;;10.93;46.58;101520.13;4824148;28;98061;-67
2023/01/22 00:23:28;;;;;;;;;;;;;;;10.94;46.79;101518.22;4811281;28;129899;-66
2023/01/22 00:26:12;;;;;;;;;;;;;;;10.93;46.59;101522.81;4827819;28;127318;-66
2023/01/22 00:28:40;;;;;;;;;;;;;;;10.93;46.95;101524.69;4839204;28;99829;-66
2023/01/22 00:31:06;;;;;;;;;;;;;;;10.92;46.90;101521.16;4813422;28;99509;-67
2023/01/22 00:33:32;;;;;;;;;;;;;;;10.94;47.00;101529.03;4828540;28;128362;-66
2023/01/22 00:36:05;;;;;;;;;;;;;;;10.94;46.75;101529.03;4844610;28;98038;-66
2023/01/22 00:38:31;;;;;;;;;;;;;;;10.93;46.72;101527.38;4829360;28;98149;-67
2023/01/22 00:41:01;;;;;;;;;;;;;;;10.93;46.95;101535.47;4823358;28;98237;-67
2023/01/22 00:43:27;;;;;;;;;;;;;;;10.94;46.90;101531.72;4821170;28;98529;-67
2023/01/22 00:45:52;;;;;;;;;;;;;;;10.93;46.70;101535.47;4827124;28;130486;-66
2023/01/22 00:48:18;;;;;;;;;;;;;;;10.94;46.88;101542.50;4840500;28;127822;-67
2023/01/22 00:50:44;;;;;;;;;;;;;;;10.93;46.63;101546.28;4841199;28;121909;-66
2023/01/22 00:53:10;;;;;;;;;;;;;;;10.92;46.75;101540.03;4839124;28;127899;-66
2023/01/22 00:55:36;;;;;;;;;;;;;;;10.93;46.97;101546.28;4841599;28;128692;-67
2023/01/22 00:58:02;;;;;;;;;;;;;;;10.93;46.88;101546.28;4826888;28;127703;-66
2023/01/22 01:00:28;;;;;;;;;;;;;;;10.93;46.74;101552.47;4827119;28;122967;-67
2023/01/22 01:05:38;;;;;;;;;;;;;;;10.93;46.93;101559.75;4834931;28;100944;-66
2023/01/22 01:08:04;;;;;;;;;;;;;;;10.93;46.62;101552.47;4824713;28;116279;-67
2023/01/22 01:10:30;;;;;;;;;;;;;;;10.92;47.11;101550.00;4824561;28;110611;-66
2023/01/22 01:12:56;;;;;;;;;;;;;;;10.93;46.99;101552.47;4822412;28;98523;-67
2023/01/22 01:15:23;;;;;;;;;;;;;;;10.92;46.64;101556.22;4840702;28;128693;-67
2023/01/22 01:17:49;;;;;;;;;;;;;;;10.93;46.80;101560.56;4825567;28;99461;-66
2023/01/22 01:20:15;;;;;;;;;;;;;;;10.93;46.87;101554.38;4812312;28;116908;-66
2023/01/22 01:22:41;;;;;;;;;;;;;;;10.92;46.65;101550.00;4839070;28;117512;-66
2023/01/22 01:25:06;;;;;;;;;;;;;;;10.93;46.58;101551.66;4820900;28;122612;-66
2023/01/22 01:27:32;;;;;;;;;;;;;;;10.92;46.69;101552.72;4839922;28;127729;-66
2023/01/22 01:29:58;;;;;;;;;;;;;;;10.92;46.95;101558.09;4822597;28;100276;-67
2023/01/22 01:32:24;;;;;;;;;;;;;;;10.92;46.84;101550.81;4836972;28;129193;-66
2023/01/22 01:34:50;;;;;;;;;;;;;;;10.94;46.86;101556.00;4840500;28;104689;-66
2023/01/22 01:37:16;;;;;;;;;;;;;;;10.92;46.62;101550.00;4806626;28;127564;-67
2023/01/22 01:39:42;;;;;;;;;;;;;;;10.91;46.93;101543.81;4811865;28;122688;-66
2023/01/22 01:42:08;;;;;;;;;;;;;;;10.92;46.84;101545.44;4825756;28;117685;-68
2023/01/22 01:44:35;;;;;;;;;;;;;;;10.92;46.81;101539.22;4813717;28;100151;-66
2023/01/22 01:47:07;;;;;;;;;;;;;;;10.94;46.92;101537.94;4833294;28;127606;-66
2023/01/22 01:49:45;;;;;;;;;;;;;;;10.92;46.86;101545.44;4823819;28;98155;-66
2023/01/22 01:52:11;;;;;;;;;;;;;;;10.93;46.93;101544.41;4825264;28;98232;-66
2023/01/22 01:54:37;;;;;;;;;;;;;;;10.93;46.69;101549.78;4823856;28;98449;-66
2023/01/22 01:57:13;;;;;;;;;;;;;;;10.92;46.83;101553.53;4823381;28;117710;-66
2023/01/22 01:59:39;;;;;;;;;;;;;;;10.91;46.91;101551.91;4821208;28;97933;-65
2023/01/22 02:02:05;;;;;;;;;;;;;;;10.93;46.97;101559.75;4838059;28;128314;-66
2023/01/22 02:04:31;;;;;;;;;;;;;;;10.92;46.71;101561.63;4809390;28;118458;-66
2023/01/22 02:06:57;;;;;;;;;;;;;;;10.92;46.96;101561.63;4838076;28;99320;-66
2023/01/22 02:09:23;;;;;;;;;;;;;;;10.93;46.95;101562.47;4822454;28;98118;-67
2023/01/22 02:11:49;;;;;;;;;;;;;;;10.93;47.17;101557.88;4824106;28;104423;-66
2023/01/22 02:14:20;;;;;;;;;;;;;;;10.93;46.97;101559.75;4808883;28;124530;-66
2023/01/22 02:16:46;;;;;;;;;;;;;;;10.92;47.00;101558.91;4825910;28;122774;-67
2023/01/22 02:19:12;;;;;;;;;;;;;;;10.92;46.73;101571.59;4832299;28;98458;-67
2023/01/22 02:21:42;;;;;;;;;;;;;;;10.92;46.98;101561.63;4836354;28;126746;-67
2023/01/22 02:24:10;;;;;;;;;;;;;;;10.92;46.67;101558.91;4820197;28;110026;-67
2023/01/22 02:26:37;;;;;;;;;;;;;;;10.92;46.93;101568.91;4840937;28;109639;-67
2023/01/22 02:29:03;;;;;;;;;;;;;;;10.93;47.14;101573.25;4838840;28;97967;-67
2023/01/22 02:31:29;;;;;;;;;;;;;;;10.93;47.05;101578.66;4823042;28;98392;-67
2023/01/22 02:33:55;;;;;;;;;;;;;;;10.93;47.02;101587.56;4838704;28;98882;-67
2023/01/22 02:36:21;;;;;;;;;;;;;;;10.93;46.61;101578.66;4821355;28;98200;-67
2023/01/22 02:38:47;;;;;;;;;;;;;;;10.94;46.85;101583.78;4820067;28;98040;-67
2023/01/22 02:41:14;;;;;;;;;;;;;;;10.95;46.53;101581.91;4816406;28;127585;-67
2023/01/22 02:43:40;;;;;;;;;;;;;;;10.94;46.94;101580.28;4810211;28;100261;-67
2023/01/22 02:46:06;;;;;;;;;;;;;;;10.94;46.73;101581.09;4824038;28;127840;-67
2023/01/22 02:48:32;;;;;;;;;;;;;;;10.94;47.12;101581.09;4839213;28;121473;-67
2023/01/22 02:50:57;;;;;;;;;;;;;;;10.95;46.98;101577.31;4825604;28;124712;-67
2023/01/22 02:53:23;;;;;;;;;;;;;;;10.96;46.68;101586.22;4841404;28;128178;-67
2023/01/22 02:55:49;;;;;;;;;;;;;;;10.94;46.73;101578.41;4810267;28;111985;-68
2023/01/22 02:58:16;;;;;;;;;;;;;;;10.95;46.74;101581.91;4837424;28;98018;-67
2023/01/22 03:00:42;;;;;;;;;;;;;;;10.95;46.69;101581.91;4825362;28;100988;-67
2023/01/22 03:03:14;;;;;;;;;;;;;;;10.96;46.71;101588.94;4821331;28;109119;-67
2023/01/22 03:05:45;;;;;;;;;;;;;;;10.95;46.70;101590.81;4837954;28;98164;-67
2023/01/22 03:08:11;;;;;;;;;;;;;;;10.96;47.00;101589.75;4836960;28;98335;-67
2023/01/22 03:10:37;;;;;;;;;;;;;;;10.95;46.90;101582.72;4840752;28;112923;-67
2023/01/22 03:21:20;;;;;;;;;;;;;;;10.97;46.65;101585.19;4821158;28;100717;-66
2023/01/22 03:23:47;;;;;;;;;;;;;;;10.97;47.00;101590.59;4824396;28;98285;-66
2023/01/22 03:26:13;;;;;;;;;;;;;;;10.97;47.01;101595.97;4810565;28;99328;-66
2023/01/22 03:28:39;;;;;;;;;;;;;;;10.97;46.79;101590.59;4810090;28;98369;-67
2023/01/22 03:31:05;;;;;;;;;;;;;;;10.97;46.87;101601.38;4826032;28;117664;-67
2023/01/22 03:33:31;;;;;;;;;;;;;;;10.97;47.00;101590.59;4808321;28;130302;-67
2023/01/22 03:36:04;;;;;;;;;;;;;;;10.97;46.75;101595.97;4822215;28;98061;-67
2023/01/22 03:38:30;;;;;;;;;;;;;;;10.97;46.92;101598.69;4825102;28;120748;-67
2023/01/22 03:41:06;;;;;;;;;;;;;;;10.97;46.75;101599.50;4835580;28;121768;-67
2023/01/22 03:43:33;;;;;;;;;;;;;;;10.97;46.93;101595.97;4825571;28;98555;-66
2023/01/22 03:46:01;;;;;;;;;;;;;;;10.97;46.63;101591.41;4824918;28;98111;-67
2023/01/22 03:48:27;;;;;;;;;;;;;;;10.96;47.10;101595.13;4835156;28;100262;-67
2023/01/22 03:50:53;;;;;;;;;;;;;;;10.97;46.90;101598.69;4810378;28;120448;-67
2023/01/22 03:53:19;;;;;;;;;;;;;;;10.97;46.80;101601.38;4837031;28;127117;-67
2023/01/22 03:55:45;;;;;;;;;;;;;;;10.98;46.73;101597.63;4834999;28;126355;-66
2023/01/22 03:58:11;;;;;;;;;;;;;;;10.97;46.79;101607.59;4820515;28;123095;-67
2023/01/22 04:00:36;;;;;;;;;;;;;;;10.98;46.67;101609.22;4820564;28;127593;-67
2023/01/22 04:03:02;;;;;;;;;;;;;;;10.98;47.01;101609.22;4816105;28;126460;-67
2023/01/22 04:05:28;;;;;;;;;;;;;;;10.98;46.55;101620.00;4808289;28;130002;-67
2023/01/22 04:07:54;;;;;;;;;;;;;;;10.99;46.79;101618.13;4837410;28;113808;-67
2023/01/22 04:10:20;;;;;;;;;;;;;;;10.98;46.80;101620.00;4826503;28;102462;-67
2023/01/22 04:12:46;;;;;;;;;;;;;;;10.98;46.95;101625.41;4834858;28;98518;-67
2023/01/22 04:15:12;;;;;;;;;;;;;;;10.98;46.78;101630.00;4833743;28;126443;-67
2023/01/22 04:17:38;;;;;;;;;;;;;;;10.99;46.78;101629.72;4834750;28;121601;-67
2023/01/22 04:20:04;;;;;;;;;;;;;;;10.98;46.80;101638.09;4824072;28;127701;-67
2023/01/22 04:22:30;;;;;;;;;;;;;;;10.98;46.88;101627.28;4832079;28;126304;-67
2023/01/22 04:24:56;;;;;;;;;;;;;;;10.98;46.75;101641.59;4803550;28;126284;-67
2023/01/22 04:27:22;;;;;;;;;;;;;;;10.99;47.13;101637.00;4838469;28;124727;-67
2023/01/22 04:29:48;;;;;;;;;;;;;;;10.99;46.87;101637.81;4819716;28;128483;-67
2023/01/22 04:32:14;;;;;;;;;;;;;;;10.99;46.71;101643.22;4820340;28;126232;-67
2023/01/22 04:34:39;;;;;;;;;;;;;;;10.99;46.92;101642.41;4819828;28;128793;-67
2023/01/22 04:37:05;;;;;;;;;;;;;;;10.99;46.69;101643.22;4836473;28;106954;-67
2023/01/22 04:39:32;;;;;;;;;;;;;;;11.00;46.78;101644.03;4820666;28;127854;-67
2023/01/22 04:41:58;;;;;;;;;;;;;;;10.99;46.67;101637.00;4821681;28;111542;-67
2023/01/22 04:44:23;;;;;;;;;;;;;;;11.00;47.17;101644.88;4839358;28;127180;-67
2023/01/22 04:46:49;;;;;;;;;;;;;;;10.99;46.82;101639.72;4837964;28;120721;-66
2023/01/22 04:49:15;;;;;;;;;;;;;;;11.00;46.78;101638.66;4841819;28;127800;-66
2023/01/22 04:51:41;;;;;;;;;;;;;;;11.00;46.82;101641.34;4824946;28;128709;-67
2023/01/22 04:54:07;;;;;;;;;;;;;;;10.99;46.59;101651.31;4826632;28;128698;-66
2023/01/22 04:56:33;;;;;;;;;;;;;;;10.99;46.77;101654.03;4837180;28;122664;-66
2023/01/22 04:58:59;;;;;;;;;;;;;;;10.99;46.98;101645.91;4826466;28;128444;-66
2023/01/22 05:01:25;;;;;;;;;;;;;;;10.99;47.09;101651.31;4844608;28;98513;-67
2023/01/22 05:03:51;;;;;;;;;;;;;;;11.00;47.02;101655.69;4827190;28;99592;-66
2023/01/22 05:06:17;;;;;;;;;;;;;;;11.01;46.91;101654.59;4846245;28;122806;-66
2023/01/22 05:08:43;;;;;;;;;;;;;;;11.02;46.67;101655.44;4819263;28;127072;-66
2023/01/22 05:11:09;;;;;;;;;;;;;;;11.02;46.91;101660.81;4827057;28;98684;-67
2023/01/22 05:13:34;;;;;;;;;;;;;;;11.02;46.95;101658.94;4838188;28;108142;-66
2023/01/22 05:16:00;;;;;;;;;;;;;;;11.02;46.99;101661.63;4807682;28;123049;-67
2023/01/22 05:18:26;;;;;;;;;;;;;;;11.03;46.74;101665.16;4823684;28;127347;-67
2023/01/22 05:20:52;;;;;;;;;;;;;;;11.04;46.96;101662.22;4844428;28;99492;-67
2023/01/22 05:23:18;;;;;;;;;;;;;;;11.05;47.12;101666.56;4841233;28;125431;-67
2023/01/22 05:25:48;;;;;;;;;;;;;;;11.05;46.99;101660.34;4827016;28;123336;-68
2023/01/22 05:28:14;;;;;;;;;;;;;;;11.05;47.05;101663.03;4824795;28;126689;-67
2023/01/22 05:30:40;;;;;;;;;;;;;;;11.06;46.94;101667.38;4826632;28;128839;-67
2023/01/22 05:33:05;;;;;;;;;;;;;;;11.06;46.90;101672.78;4825326;28;126855;-67
2023/01/22 05:35:31;;;;;;;;;;;;;;;11.07;47.00;101677.91;4839921;28;122343;-67
2023/01/22 05:37:57;;;;;;;;;;;;;;;11.08;46.73;101673.31;4822552;28;127322;-67
2023/01/22 05:40:23;;;;;;;;;;;;;;;11.06;47.05;101670.88;4816920;28;128334;-67
2023/01/22 05:42:49;;;;;;;;;;;;;;;11.07;46.67;101675.22;4808195;28;99432;-67
2023/01/22 05:45:15;;;;;;;;;;;;;;;11.09;46.64;101676.88;4826301;28;99806;-67
2023/01/22 05:47:41;;;;;;;;;;;;;;;11.08;46.79;101678.72;4827467;28;127411;-66
2023/01/22 05:50:08;;;;;;;;;;;;;;;11.08;46.79;101692.22;4825925;28;129037;-67
2023/01/22 05:52:34;;;;;;;;;;;;;;;11.05;46.69;101687.31;4822407;28;100032;-66
2023/01/22 05:55:00;;;;;;;;;;;;;;;11.03;46.98;101686.72;4824627;28;122841;-67
2023/01/22 05:57:28;;;;;;;;;;;;;;;10.99;46.98;101691.78;4829788;28;98052;-66
2023/01/22 05:59:54;;;;;;;;;;;;;;;10.97;47.05;101683.13;4840670;28;98179;-66
2023/01/22 06:02:20;;;;;;;;;;;;;;;10.94;46.63;101696.28;4810556;28;127114;-66
2023/01/22 06:04:46;;;;;;;;;;;;;;;10.92;47.00;101687.59;4837909;28;122479;-66
2023/01/22 06:07:12;;;;;;;;;;;;;;;10.89;46.80;101683.50;4810341;28;128579;-66
2023/01/22 06:09:38;;;;;;;;;;;;;;;10.86;47.09;101694.78;4823671;28;126971;-67
2023/01/22 06:12:04;;;;;;;;;;;;;;;10.84;46.80;101691.50;4807044;28;130041;-67
2023/01/22 06:14:30;;;;;;;;;;;;;;;10.80;47.13;101695.72;4838770;28;117136;-66
2023/01/22 06:16:55;;;;;;;;;;;;;;;10.78;47.03;101700.56;4822989;28;126355;-66
2023/01/22 06:19:21;;;;;;;;;;;;;;;10.76;47.12;101702.66;4837335;28;123990;-66
2023/01/22 06:21:47;;;;;;;;;;;;;;;10.73;47.10;101706.66;4825494;28;126861;-67
2023/01/22 06:24:13;;;;;;;;;;;;;;;10.70;46.80;101707.13;4834975;28;121994;-67
2023/01/22 06:26:39;;;;;;;;;;;;;;;10.68;46.93;101711.94;4835823;28;119337;-66
2023/01/22 06:29:05;;;;;;;;;;;;;;;10.67;46.86;101714.88;4821141;28;127940;-66
2023/01/22 06:31:31;;;;;;;;;;;;;;;10.66;47.23;101718.63;4824080;28;112415;-66
2023/01/22 06:33:57;;;;;;;;;;;;;;;10.65;47.17;101719.69;4826177;28;98207;-67
2023/01/22 06:36:23;;;;;;;;;;;;;;;10.62;46.85;101721.00;4808999;28;128644;-66
2023/01/22 06:38:49;;;;;;;;;;;;;;;10.61;47.13;101727.44;4832061;28;127324;-67
2023/01/22 06:41:15;;;;;;;;;;;;;;;10.59;47.09;101726.84;4834773;28;130464;-67
2023/01/22 06:43:41;;;;;;;;;;;;;;;10.57;46.98;101729.78;4821576;28;109270;-67
2023/01/22 06:46:06;;;;;;;;;;;;;;;10.58;47.39;101736.00;4808532;28;100440;-67
2023/01/22 06:48:32;;;;;;;;;;;;;;;10.56;47.30;101732.69;4820048;28;129441;-68
2023/01/22 06:50:59;;;;;;;;;;;;;;;10.54;47.04;101741.03;4824878;28;125610;-67
2023/01/22 06:53:25;;;;;;;;;;;;;;;10.53;46.73;101743.97;4835624;28;106083;-67
2023/01/22 06:55:51;;;;;;;;;;;;;;;10.52;47.15;101756.63;4807530;28;99202;-68
2023/01/22 06:58:17;;;;;;;;;;;;;;;10.51;46.90;101763.06;4838237;28;98615;-67
2023/01/22 07:00:43;;;;;;;;;;;;;;;10.51;47.06;101759.56;4821465;28;98418;-67
2023/01/22 07:03:10;;;;;;;;;;;;;;;10.50;47.33;101761.44;4817150;28;122954;-67
2023/01/22 07:05:35;;;;;;;;;;;;;;;10.50;46.94;101763.31;4836425;28;115625;-67
2023/01/22 07:08:01;;;;;;;;;;;;;;;10.48;46.85;101770.81;4818159;28;113023;-67
2023/01/22 07:10:27;;;;;;;;;;;;;;;10.47;47.03;101775.38;4804975;28;130264;-67
2023/01/22 07:12:54;;;;;;;;;;;;;;;10.46;46.92;101775.63;4805297;28;98022;-66
2023/01/22 07:15:20;;;;;;;;;;;;;;;10.45;46.94;101769.44;4821574;28;100185;-67
2023/01/22 07:17:52;;;;;;;;;;;;;;;10.45;47.25;101768.56;4833774;28;128388;-67
2023/01/22 07:20:19;;;;;;;;;;;;;;;10.45;46.92;101779.34;4836534;28;118189;-67
2023/01/22 07:22:45;;;;;;;;;;;;;;;10.43;47.05;101779.59;4819248;28;120338;-67
2023/01/22 07:25:11;;;;;;;;;;;;;;;10.43;46.87;101776.09;4818427;28;127541;-67
2023/01/22 07:27:37;;;;;;;;;;;;;;;10.43;47.20;101782.31;4818519;28;98832;-67
2023/01/22 07:30:04;;;;;;;;;;;;;;;10.43;47.24;101784.19;4822154;28;98166;-67
2023/01/22 07:32:30;;;;;;;;;;;;;;;10.42;47.14;101787.94;4832047;28;107940;-67
2023/01/22 07:34:56;;;;;;;;;;;;;;;10.42;46.87;101788.75;4821391;28;129596;-68
2023/01/22 07:37:22;;;;;;;;;;;;;;;10.41;47.00;101791.66;4803942;28;127732;-67
2023/01/22 07:39:48;;;;;;;;;;;;;;;10.42;46.73;101794.16;4819970;28;98257;-67
2023/01/22 07:42:14;;;;;;;;;;;;;;;10.42;47.30;101798.72;4806028;28;124278;-67
2023/01/22 07:44:39;;;;;;;;;;;;;;;10.41;46.70;101800.56;4823654;28;128046;-67
2023/01/22 07:47:06;;;;;;;;;;;;;;;10.41;46.86;101791.66;4820712;28;128706;-67
2023/01/22 07:49:32;;;;;;;;;;;;;;;10.41;46.82;101795.19;4818079;28;109143;-67
2023/01/22 07:51:58;;;;;;;;;;;;;;;10.40;47.14;101798.94;4820462;28;122278;-67
2023/01/22 07:54:23;;;;;;;;;;;;;;;10.41;46.84;101805.97;4818160;28;114825;-67
2023/01/22 07:56:49;;;;;;;;;;;;;;;10.41;46.82;101810.53;4835508;28;127550;-67
2023/01/22 07:59:15;;;;;;;;;;;;;;;10.41;47.06;101811.34;4803021;28;125326;-67
2023/01/22 08:01:41;;;;;;;;;;;;;;;10.41;46.74;101805.16;4819684;28;98177;-67
2023/01/22 08:04:07;;;;;;;;;;;;;;;10.40;47.17;101808.91;4804884;28;128473;-67
2023/01/22 08:06:33;;;;;;;;;;;;;;;10.40;46.92;101815.13;4818320;28;125916;-67
2023/01/22 08:08:59;;;;;;;;;;;;;;;10.40;46.54;101815.13;4831955;28;98137;-67
2023/01/22 08:11:26;;;;;;;;;;;;;;;10.41;46.63;101818.63;4832240;28;98416;-67
2023/01/22 08:13:52;;;;;;;;;;;;;;;10.40;46.85;101827.78;4816757;28;108380;-67
2023/01/22 08:16:17;;;;;;;;;;;;;;;10.41;47.22;101837.50;4800131;28;130228;-67
2023/01/22 08:18:43;;;;;;;;;;;;;;;10.41;46.98;101829.41;4805518;28;127934;-67
2023/01/22 08:21:09;;;;;;;;;;;;;;;10.42;46.84;101836.47;4809863;28;124079;-67
2023/01/22 08:23:35;;;;;;;;;;;;;;;10.41;47.29;101838.31;4803695;28;98329;-67
2023/01/22 08:26:02;;;;;;;;;;;;;;;10.43;46.98;101848.88;4821618;28;126464;-67
2023/01/22 08:28:28;;;;;;;;;;;;;;;10.44;47.19;101854.03;4809121;28;98355;-68
2023/01/22 08:30:58;;;;;;;;;;;;;;;10.44;46.72;101854.03;4826600;28;101210;-67
2023/01/22 08:33:24;;;;;;;;;;;;;;;10.46;46.46;101853.81;4825649;28;99353;-67
2023/01/22 08:35:50;;;;;;;;;;;;;;;10.45;46.84;101853.00;4823660;28;98290;-67
2023/01/22 08:38:16;;;;;;;;;;;;;;;10.45;46.50;101858.38;4805344;28;100373;-67
2023/01/22 08:40:42;;;;;;;;;;;;;;;10.47;47.16;101853.56;4824713;28;124718;-67
2023/01/22 08:43:08;;;;;;;;;;;;;;;10.47;46.86;101858.16;4831870;28;125861;-67
2023/01/22 08:45:34;;;;;;;;;;;;;;;10.49;46.91;101866.81;4805704;28;127539;-67
2023/01/22 08:48:00;;;;;;;;;;;;;;;10.49;46.63;101864.94;4834111;28;128107;-67
2023/01/22 08:50:27;;;;;;;;;;;;;;;10.49;46.82;101864.94;4838996;28;121842;-67
2023/01/22 08:52:56;;;;;;;;;;;;;;;10.50;46.48;101868.47;4833179;28;99620;-68
2023/01/22 08:55:22;;;;;;;;;;;;;;;10.52;46.89;101869.84;4819020;28;99576;-67
2023/01/22 08:57:54;;;;;;;;;;;;;;;10.53;46.93;101874.22;4819754;28;109470;-67
2023/01/22 09:00:21;;;;;;;;;;;;;;;10.54;46.50;101875.03;4820082;28;98306;-67
2023/01/22 09:02:47;;;;;;;;;;;;;;;10.54;46.69;101872.34;4825893;28;98077;-67
2023/01/22 09:05:13;;;;;;;;;;;;;;;10.57;46.51;101879.94;4822229;28;116739;-67
2023/01/22 09:07:39;;;;;;;;;;;;;;;10.57;46.72;101875.41;4823670;28;116983;-68
2023/01/22 09:10:07;;;;;;;;;;;;;;;10.60;46.87;101881.34;4824302;28;123109;-67
2023/01/22 09:12:33;;;;;;;;;;;;;;;10.61;46.50;101877.59;4825501;28;98380;-67
2023/01/22 09:14:59;;;;;;;;;;;;;;;10.64;46.64;101887.94;4806054;28;114715;-67
2023/01/22 09:17:26;;;;;;;;;;;;;;;10.64;46.88;101893.31;4819702;28;105053;-67
2023/01/22 09:19:52;;;;;;;;;;;;;;;10.65;46.61;101893.09;4820422;28;99989;-67
2023/01/22 09:22:19;;;;;;;;;;;;;;;10.67;46.96;101892.84;4821807;28;118122;-67
2023/01/22 09:24:45;;;;;;;;;;;;;;;10.68;47.12;101894.50;4836833;28;98764;-67
2023/01/22 09:27:12;;;;;;;;;;;;;;;10.68;47.02;101895.31;4807544;28;127520;-67
2023/01/22 09:29:38;;;;;;;;;;;;;;;10.69;46.88;101896.13;4834465;28;97996;-67
2023/01/22 09:32:04;;;;;;;;;;;;;;;10.71;46.55;101892.16;4823240;28;98070;-67
2023/01/22 09:34:30;;;;;;;;;;;;;;;10.73;47.00;101894.63;4836807;28;125233;-67
2023/01/22 09:36:56;;;;;;;;;;;;;;;10.72;46.83;101899.19;4832579;28;97971;-68
2023/01/22 09:39:22;;;;;;;;;;;;;;;10.74;46.33;101902.47;4819766;28;122543;-67
2023/01/22 09:41:50;;;;;;;;;;;;;;;10.76;46.83;101910.31;4805277;28;129102;-67
2023/01/22 09:44:31;;;;;;;;;;;;;;;10.77;46.59;101910.13;4817135;28;122461;-68
2023/01/22 09:47:04;;;;;;;;;;;;;;;10.78;46.98;101911.75;4822867;28;98136;-67
2023/01/22 09:49:43;;;;;;;;;;;;;;;10.79;46.66;101915.25;4806051;28;98439;-67
2023/01/22 09:52:09;;;;;;;;;;;;;;;10.81;46.87;101908.59;4807600;28;101437;-67
2023/01/22 09:54:35;;;;;;;;;;;;;;;10.86;46.63;101901.66;4820511;28;129615;-67
2023/01/22 09:57:03;;;;;;;;;;;;;;;10.89;46.40;101891.22;4818390;28;127195;-67
2023/01/22 09:59:36;;;;;;;;;;;;;;;10.94;46.46;101893.22;4819378;28;98008;-67
2023/01/22 10:02:20;;;;;;;;;;;;;;;10.96;46.58;101883.81;4825522;28;98676;-68
2023/01/22 10:04:47;;;;;;;;;;;;;;;10.98;46.55;101889.00;4835353;28;98579;-67
2023/01/22 10:07:30;;;;;;;;;;;;;;;11.00;46.35;101890.41;4819179;28;121730;-68
2023/01/22 10:10:00;;;;;;;;;;;;;;;11.04;46.60;101886.19;4821847;28;110100;-67
2023/01/22 10:12:28;;;;;;;;;;;;;;;11.06;46.37;101902.94;4822486;28;122525;-68
2023/01/22 10:14:53;;;;;;;;;;;;;;;11.10;46.39;101897.91;4826001;28;98590;-68
2023/01/22 10:17:23;;;;;;;;;;;;;;;11.11;46.58;101906.81;4804572;28;127491;-68
2023/01/22 10:19:54;;;;;;;;;;;;;;;11.12;46.40;101900.34;4807053;28;122559;-67
2023/01/22 10:22:22;;;;;;;;;;;;;;;11.10;46.48;101895.19;4817147;28;98825;-68
2023/01/22 10:24:48;;;;;;;;;;;;;;;11.11;46.79;101898.72;4822971;28;120378;-66
2023/01/22 10:27:16;;;;;;;;;;;;;;;11.12;46.50;101894.97;4832306;28;98345;-66
2023/01/22 10:29:43;;;;;;;;;;;;;;;11.11;46.62;101898.72;4819688;28;98139;-67
2023/01/22 10:32:15;;;;;;;;;;;;;;;11.10;46.50;101907.88;4822521;28;117622;-66
2023/01/22 10:34:41;;;;;;;;;;;;;;;11.08;46.44;101908.09;4832249;28;98442;-67
2023/01/22 10:37:15;;;;;;;;;;;;;;;11.06;46.88;101915.63;4814872;28;127439;-67
2023/01/22 10:39:46;;;;;;;;;;;;;;;11.05;46.69;101919.38;4834515;28;98304;-67
2023/01/22 10:42:23;;;;;;;;;;;;;;;11.02;46.91;101912.56;4820855;28;100618;-67
2023/01/22 10:44:49;;;;;;;;;;;;;;;11.01;46.97;101907.41;4832993;28;122532;-67
2023/01/22 10:47:19;;;;;;;;;;;;;;;11.00;46.56;101908.44;4806445;28;122308;-68
2023/01/22 10:49:45;;;;;;;;;;;;;;;11.00;46.79;101909.31;4818436;28;98050;-68
2023/01/22 10:52:22;;;;;;;;;;;;;;;11.00;46.54;101920.09;4820544;28;108623;-68
2023/01/22 10:54:55;;;;;;;;;;;;;;;11.00;46.75;101913.84;4816516;28;99278;-67
2023/01/22 10:57:30;;;;;;;;;;;;;;;10.97;46.59;101915.16;4821421;28;123738;-66
2023/01/22 11:00:14;;;;;;;;;;;;;;;10.95;46.82;101928.06;4822222;28;98125;-67
2023/01/22 11:02:41;;;;;;;;;;;;;;;10.95;47.12;101914.56;4836833;28;98133;-66
2023/01/22 11:05:16;;;;;;;;;;;;;;;10.92;46.85;101917.72;4812064;28;125141;-66
2023/01/22 11:07:41;;;;;;;;;;;;;;;10.91;46.83;101924.19;4838709;28;98238;-66
2023/01/22 11:10:30;;;;;;;;;;;;;;;10.91;46.81;101920.66;4806859;28;115074;-66
2023/01/22 11:13:04;;;;;;;;;;;;;;;10.91;47.08;101921.47;4838080;28;119152;-66
2023/01/22 11:15:52;;;;;;;;;;;;;;;10.92;47.01;101927.69;4823585;28;102805;-66
2023/01/22 11:18:27;;;;;;;;;;;;;;;10.92;46.51;101915.03;4836153;28;98248;-66
2023/01/22 11:20:54;;;;;;;;;;;;;;;10.94;46.81;101921.03;4838434;28;98365;-66
2023/01/22 11:23:57;;;;;;;;;;;;;;;10.96;46.84;101916.19;4833312;28;121887;-66
2023/01/22 11:26:47;;;;;;;;;;;;;;;10.99;46.66;101906.81;4821444;28;108426;-66
2023/01/22 11:29:16;;;;;;;;;;;;;;;10.98;46.52;101930.28;4833138;28;98107;-66
2023/01/22 11:32:09;;;;;;;;;;;;;;;10.97;46.99;101925.13;4832883;28;99633;-67
2023/01/22 11:34:56;;;;;;;;;;;;;;;10.96;46.87;101920.78;4832454;28;99444;-67
2023/01/22 11:37:40;;;;;;;;;;;;;;;10.94;46.60;101926.41;4832161;28;121552;-67
2023/01/22 11:40:21;;;;;;;;;;;;;;;10.92;46.75;101922.28;4833072;28;98373;-67
2023/01/22 11:42:52;;;;;;;;;;;;;;;10.90;46.97;101919.84;4835961;28;107215;-67
2023/01/22 11:45:40;;;;;;;;;;;;;;;10.88;46.57;101923.81;4845564;28;98255;-67
2023/01/22 11:48:30;;;;;;;;;;;;;;;10.85;47.03;101919.75;4830744;28;100587;-67
2023/01/22 11:51:17;;;;;;;;;;;;;;;10.85;46.50;101913.53;4834957;28;98622;-67
2023/01/22 11:54:15;;;;;;;;;;;;;;;10.83;46.67;101919.13;4840655;28;98362;-67
2023/01/22 11:56:59;;;;;;;;;;;;;;;10.81;46.61;101905.06;4834337;28;98203;-67
2023/01/22 11:59:35;;;;;;;;;;;;;;;10.82;46.96;101901.31;4832826;28;98315;-66
2023/01/22 12:02:21;;;;;;;;;;;;;;;10.82;47.00;101910.22;4818409;28;102770;-66
2023/01/22 12:05:09;;;;;;;;;;;;;;;10.87;46.67;101914.91;4826173;28;112340;-66
2023/01/22 12:08:00;;;;;;;;;;;;;;;10.94;46.55;101901.31;4838850;28;98838;-67
2023/01/22 12:10:47;;;;;;;;;;;;;;;10.93;46.59;101908.59;4838407;28;98340;-69
2023/01/22 12:13:44;;;;;;;;;;;;;;;10.93;46.74;101911.28;4839075;28;99174;-67
2023/01/22 12:16:18;;;;;;;;;;;;;;;10.94;46.66;101898.63;4841549;28;98157;-67
2023/01/22 12:19:09;;;;;;;;;;;;;;;10.95;46.50;101895.69;4822465;28;123137;-67
2023/01/22 12:21:55;;;;;;;;;;;;;;;10.98;46.52;101899.78;4807866;28;97953;-67
2023/01/22 12:24:32;;;;;;;;;;;;;;;11.00;46.67;101900.34;4829819;28;99363;-67
2023/01/22 12:27:08;;;;;;;;;;;;;;;10.98;46.70;101900.59;4841150;28;104130;-67
2023/01/22 12:29:37;;;;;;;;;;;;;;;10.96;46.69;101908.09;4825214;28;100039;-67
2023/01/22 12:32:11;;;;;;;;;;;;;;;10.95;46.67;101909.16;4822741;28;117373;-66
2023/01/22 12:35:00;;;;;;;;;;;;;;;10.96;46.68;101912.69;4805223;28;98496;-67
2023/01/22 12:37:37;;;;;;;;;;;;;;;10.92;46.56;101917.72;4826488;28;116735;-68
2023/01/22 12:40:28;;;;;;;;;;;;;;;10.90;46.55;101927.13;4823078;28;99655;-67
2023/01/22 12:43:06;;;;;;;;;;;;;;;10.87;46.66;101922.19;4834649;28;108639;-67
2023/01/22 12:45:40;;;;;;;;;;;;;;;10.85;46.74;101918.91;4824733;28;116878;-68
2023/01/22 12:48:27;;;;;;;;;;;;;;;10.82;46.63;101920.19;4823277;28;97987;-67
2023/01/22 12:50:54;;;;;;;;;;;;;;;10.78;46.67;101925.22;4809508;28;128551;-67